sensor_id;sensor_type;location;lat;lon;timestamp;pressure;altitude;pressure_sealevel;temperature;humidity
6194;BME280;3130;41.564;23.280;2022-08-03T00:00:27;98662.69;;;23.85;49.18
6194;BME280;3130;41.564;23.280;2022-08-03T00:02:54;98661.16;;;23.90;49.09
6194;BME280;3130;41.564;23.280;2022-08-03T00:05:21;98648.78;;;23.84;49.14
6194;BME280;3130;41.564;23.280;2022-08-03T00:07:48;98651.78;;;23.96;49.00
6194;BME280;3130;41.564;23.280;2022-08-03T00:10:15;98653.13;;;24.06;49.03
6194;BME280;3130;41.564;23.280;2022-08-03T00:12:43;98651.22;;;24.15;48.29
6194;BME280;3130;41.564;23.280;2022-08-03T00:15:10;98654.53;;;24.23;48.05
6194;BME280;3130;41.564;23.280;2022-08-03T00:17:38;98649.19;;;24.31;47.80
6194;BME280;3130;41.564;23.280;2022-08-03T00:20:06;98651.06;;;24.37;47.46
6194;BME280;3130;41.564;23.280;2022-08-03T00:22:33;98656.06;;;24.32;47.18
6194;BME280;3130;41.564;23.280;2022-08-03T00:25:00;98646.19;;;24.34;47.63
6194;BME280;3130;41.564;23.280;2022-08-03T00:27:27;98553.75;;;23.76;47.67
6194;BME280;3130;41.564;23.280;2022-08-03T00:29:54;98639.06;;;24.28;47.58
6194;BME280;3130;41.564;23.280;2022-08-03T00:32:21;98660.38;;;24.40;47.53
6194;BME280;3130;41.564;23.280;2022-08-03T00:34:50;98658.31;;;24.35;47.57
6194;BME280;3130;41.564;23.280;2022-08-03T00:37:17;98642.44;;;24.08;48.19
6194;BME280;3130;41.564;23.280;2022-08-03T00:39:44;98657.34;;;24.07;48.77
6194;BME280;3130;41.564;23.280;2022-08-03T00:42:12;98658.72;;;24.03;48.91
6194;BME280;3130;41.564;23.280;2022-08-03T00:44:40;98579.22;;;23.53;49.20
6194;BME280;3130;41.564;23.280;2022-08-03T00:47:08;98657.53;;;24.06;49.52
6194;BME280;3130;41.564;23.280;2022-08-03T00:49:35;98654.56;;;24.09;49.46
6194;BME280;3130;41.564;23.280;2022-08-03T00:52:05;98660.44;;;23.96;49.61
6194;BME280;3130;41.564;23.280;2022-08-03T00:54:32;98657.09;;;23.88;49.92
6194;BME280;3130;41.564;23.280;2022-08-03T00:56:59;98644.78;;;23.59;50.49
6194;BME280;3130;41.564;23.280;2022-08-03T00:59:28;98641.13;;;23.46;51.38
6194;BME280;3130;41.564;23.280;2022-08-03T01:01:55;98663.28;;;23.58;51.88
6194;BME280;3130;41.564;23.280;2022-08-03T01:04:22;98662.94;;;23.61;52.00
6194;BME280;3130;41.564;23.280;2022-08-03T01:06:56;98657.16;;;23.65;51.84
6194;BME280;3130;41.564;23.280;2022-08-03T01:09:34;98663.66;;;23.69;52.08
6194;BME280;3130;41.564;23.280;2022-08-03T01:12:09;98647.88;;;23.63;51.74
6194;BME280;3130;41.564;23.280;2022-08-03T01:14:43;98652.88;;;23.50;51.82
6194;BME280;3130;41.564;23.280;2022-08-03T01:17:19;98664.81;;;23.52;51.55
6194;BME280;3130;41.564;23.280;2022-08-03T01:19:53;98665.78;;;23.37;51.99
6194;BME280;3130;41.564;23.280;2022-08-03T01:22:39;98666.84;;;23.28;52.29
6194;BME280;3130;41.564;23.280;2022-08-03T01:25:23;98669.25;;;23.15;53.16
6194;BME280;3130;41.564;23.280;2022-08-03T01:28:01;98584.06;;;22.53;54.03
6194;BME280;3130;41.564;23.280;2022-08-03T01:30:39;98633.84;;;22.82;54.23
6194;BME280;3130;41.564;23.280;2022-08-03T01:33:12;98664.53;;;22.88;54.62
6194;BME280;3130;41.564;23.280;2022-08-03T01:35:44;98659.66;;;22.85;54.93
6194;BME280;3130;41.564;23.280;2022-08-03T01:38:17;98657.50;;;22.89;55.02
6194;BME280;3130;41.564;23.280;2022-08-03T01:40:46;98662.13;;;23.01;54.98
6194;BME280;3130;41.564;23.280;2022-08-03T01:43:19;98557.28;;;22.51;54.39
6194;BME280;3130;41.564;23.280;2022-08-03T01:45:51;98659.72;;;23.22;53.97
6194;BME280;3130;41.564;23.280;2022-08-03T01:48:20;98662.06;;;23.32;53.72
6194;BME280;3130;41.564;23.280;2022-08-03T01:50:48;98662.38;;;23.37;53.24
6194;BME280;3130;41.564;23.280;2022-08-03T01:53:17;98661.34;;;23.38;53.14
6194;BME280;3130;41.564;23.280;2022-08-03T01:55:47;98663.09;;;23.45;53.08
6194;BME280;3130;41.564;23.280;2022-08-03T01:58:16;98662.56;;;23.49;52.80
6194;BME280;3130;41.564;23.280;2022-08-03T02:00:46;98655.16;;;23.53;52.77
6194;BME280;3130;41.564;23.280;2022-08-03T02:03:15;98661.03;;;23.55;52.97
6194;BME280;3130;41.564;23.280;2022-08-03T02:05:44;98662.56;;;23.49;52.90
6194;BME280;3130;41.564;23.280;2022-08-03T02:08:15;98654.88;;;23.48;52.86
6194;BME280;3130;41.564;23.280;2022-08-03T02:10:45;98657.59;;;23.54;53.01
6194;BME280;3130;41.564;23.280;2022-08-03T02:13:14;98658.41;;;23.55;53.08
6194;BME280;3130;41.564;23.280;2022-08-03T02:15:42;98657.31;;;23.49;53.25
6194;BME280;3130;41.564;23.280;2022-08-03T02:18:10;98652.00;;;23.43;53.43
6194;BME280;3130;41.564;23.280;2022-08-03T02:20:42;98650.88;;;23.38;53.97
6194;BME280;3130;41.564;23.280;2022-08-03T02:23:10;98647.53;;;23.29;54.04
6194;BME280;3130;41.564;23.280;2022-08-03T02:25:42;98634.53;;;23.21;54.60
6194;BME280;3130;41.564;23.280;2022-08-03T02:28:11;98618.38;;;22.95;54.68
6194;BME280;3130;41.564;23.280;2022-08-03T02:30:42;98650.88;;;23.01;55.01
6194;BME280;3130;41.564;23.280;2022-08-03T02:33:22;98654.31;;;22.79;55.27
6194;BME280;3130;41.564;23.280;2022-08-03T02:35:52;98647.56;;;22.62;56.39
6194;BME280;3130;41.564;23.280;2022-08-03T02:38:23;98641.78;;;22.44;56.32
6194;BME280;3130;41.564;23.280;2022-08-03T02:40:54;98648.66;;;22.45;56.51
6194;BME280;3130;41.564;23.280;2022-08-03T02:43:23;98648.34;;;22.40;56.70
6194;BME280;3130;41.564;23.280;2022-08-03T02:45:52;98651.94;;;22.39;56.63
6194;BME280;3130;41.564;23.280;2022-08-03T02:48:21;98649.84;;;22.27;57.09
6194;BME280;3130;41.564;23.280;2022-08-03T02:50:52;98653.44;;;22.26;57.09
6194;BME280;3130;41.564;23.280;2022-08-03T02:53:21;98657.88;;;22.17;57.33
6194;BME280;3130;41.564;23.280;2022-08-03T02:55:49;98654.34;;;22.10;57.15
6194;BME280;3130;41.564;23.280;2022-08-03T02:58:18;98641.38;;;21.86;57.45
6194;BME280;3130;41.564;23.280;2022-08-03T03:00:47;98661.09;;;21.89;57.66
6194;BME280;3130;41.564;23.280;2022-08-03T03:03:16;98664.09;;;21.78;58.41
6194;BME280;3130;41.564;23.280;2022-08-03T03:05:44;98659.72;;;21.62;59.09
6194;BME280;3130;41.564;23.280;2022-08-03T03:08:15;98666.75;;;21.46;59.77
6194;BME280;3130;41.564;23.280;2022-08-03T03:10:43;98633.16;;;21.19;60.23
6194;BME280;3130;41.564;23.280;2022-08-03T03:13:13;98668.88;;;21.27;60.59
6194;BME280;3130;41.564;23.280;2022-08-03T03:15:41;98656.50;;;21.13;60.00
6194;BME280;3130;41.564;23.280;2022-08-03T03:18:09;98672.13;;;21.13;60.76
6194;BME280;3130;41.564;23.280;2022-08-03T03:20:38;98671.19;;;21.06;60.86
6194;BME280;3130;41.564;23.280;2022-08-03T03:23:05;98666.63;;;21.08;61.28
6194;BME280;3130;41.564;23.280;2022-08-03T03:25:35;98679.81;;;21.14;61.26
6194;BME280;3130;41.564;23.280;2022-08-03T03:28:02;98680.78;;;21.13;61.41
6194;BME280;3130;41.564;23.280;2022-08-03T03:30:30;98681.91;;;21.11;61.80
6194;BME280;3130;41.564;23.280;2022-08-03T03:32:57;98677.38;;;21.05;62.02
6194;BME280;3130;41.564;23.280;2022-08-03T03:35:25;98677.50;;;21.03;62.08
6194;BME280;3130;41.564;23.280;2022-08-03T03:37:53;98677.69;;;21.02;62.14
6194;BME280;3130;41.564;23.280;2022-08-03T03:40:20;98688.75;;;21.12;62.03
6194;BME280;3130;41.564;23.280;2022-08-03T03:42:49;98692.53;;;21.09;62.31
6194;BME280;3130;41.564;23.280;2022-08-03T03:45:17;98680.78;;;21.05;62.38
6194;BME280;3130;41.564;23.280;2022-08-03T03:47:44;98697.91;;;21.16;61.90
6194;BME280;3130;41.564;23.280;2022-08-03T03:50:11;98696.91;;;21.17;61.91
6194;BME280;3130;41.564;23.280;2022-08-03T03:52:41;98708.50;;;21.14;62.33
6194;BME280;3130;41.564;23.280;2022-08-03T03:55:08;98713.53;;;21.16;62.15
6194;BME280;3130;41.564;23.280;2022-08-03T03:57:35;98721.03;;;21.11;62.08
6194;BME280;3130;41.564;23.280;2022-08-03T04:00:05;98718.91;;;21.06;62.08
6194;BME280;3130;41.564;23.280;2022-08-03T04:02:32;98717.47;;;21.04;62.29
6194;BME280;3130;41.564;23.280;2022-08-03T04:04:59;98728.69;;;21.04;62.28
6194;BME280;3130;41.564;23.280;2022-08-03T04:07:50;98723.47;;;21.04;62.54
6194;BME280;3130;41.564;23.280;2022-08-03T04:10:41;98728.03;;;21.02;62.86
6194;BME280;3130;41.564;23.280;2022-08-03T04:13:28;98718.91;;;21.06;62.99
6194;BME280;3130;41.564;23.280;2022-08-03T04:15:58;98722.19;;;21.08;62.57
6194;BME280;3130;41.564;23.280;2022-08-03T04:18:27;98726.09;;;21.12;62.26
6194;BME280;3130;41.564;23.280;2022-08-03T04:20:56;98707.69;;;21.06;62.75
6194;BME280;3130;41.564;23.280;2022-08-03T04:23:26;98724.31;;;21.21;62.25
6194;BME280;3130;41.564;23.280;2022-08-03T04:25:55;98719.09;;;21.29;62.22
6194;BME280;3130;41.564;23.280;2022-08-03T04:28:23;98713.06;;;21.20;62.29
6194;BME280;3130;41.564;23.280;2022-08-03T04:30:52;98722.38;;;21.38;62.75
6194;BME280;3130;41.564;23.280;2022-08-03T04:33:21;98733.28;;;21.42;62.18
6194;BME280;3130;41.564;23.280;2022-08-03T04:35:51;98739.47;;;21.57;61.86
6194;BME280;3130;41.564;23.280;2022-08-03T04:38:24;98702.28;;;21.47;61.82
6194;BME280;3130;41.564;23.280;2022-08-03T04:40:52;98683.69;;;21.50;61.08
6194;BME280;3130;41.564;23.280;2022-08-03T04:43:20;98694.63;;;21.61;61.00
6194;BME280;3130;41.564;23.280;2022-08-03T04:45:49;98741.38;;;22.03;60.32
6194;BME280;3130;41.564;23.280;2022-08-03T04:48:18;98746.91;;;22.08;60.14
6194;BME280;3130;41.564;23.280;2022-08-03T04:50:47;98750.81;;;22.12;60.62
6194;BME280;3130;41.564;23.280;2022-08-03T04:53:15;98752.91;;;22.16;60.52
6194;BME280;3130;41.564;23.280;2022-08-03T04:55:43;98759.91;;;22.24;60.31
6194;BME280;3130;41.564;23.280;2022-08-03T04:58:10;98766.75;;;22.33;60.51
6194;BME280;3130;41.564;23.280;2022-08-03T05:00:38;98758.09;;;22.40;60.96
6194;BME280;3130;41.564;23.280;2022-08-03T05:03:05;98761.38;;;22.42;61.52
6194;BME280;3130;41.564;23.280;2022-08-03T05:05:32;98771.94;;;22.48;61.74
6194;BME280;3130;41.564;23.280;2022-08-03T05:08:01;98757.72;;;22.51;61.46
6194;BME280;3130;41.564;23.280;2022-08-03T05:10:28;98759.66;;;22.57;62.28
6194;BME280;3130;41.564;23.280;2022-08-03T05:12:55;98767.75;;;22.70;60.80
6194;BME280;3130;41.564;23.280;2022-08-03T05:15:22;98768.53;;;22.78;60.08
6194;BME280;3130;41.564;23.280;2022-08-03T05:17:49;98713.25;;;22.59;58.57
6194;BME280;3130;41.564;23.280;2022-08-03T05:20:16;98777.59;;;23.06;58.44
6194;BME280;3130;41.564;23.280;2022-08-03T05:22:43;98771.41;;;23.22;58.17
6194;BME280;3130;41.564;23.280;2022-08-03T05:25:12;98769.72;;;23.29;58.67
6194;BME280;3130;41.564;23.280;2022-08-03T05:27:39;98765.91;;;23.39;57.53
6194;BME280;3130;41.564;23.280;2022-08-03T05:30:07;98777.41;;;23.52;56.34
6194;BME280;3130;41.564;23.280;2022-08-03T05:32:34;98777.63;;;23.65;56.16
6194;BME280;3130;41.564;23.280;2022-08-03T05:35:01;98737.16;;;23.53;55.85
6194;BME280;3130;41.564;23.280;2022-08-03T05:37:29;98776.81;;;23.87;55.19
6194;BME280;3130;41.564;23.280;2022-08-03T05:39:56;98784.56;;;23.95;54.89
6194;BME280;3130;41.564;23.280;2022-08-03T05:42:24;98779.91;;;24.05;55.22
6194;BME280;3130;41.564;23.280;2022-08-03T05:44:51;98786.31;;;24.17;54.10
6194;BME280;3130;41.564;23.280;2022-08-03T05:47:18;98791.00;;;24.22;54.55
6194;BME280;3130;41.564;23.280;2022-08-03T05:49:45;98792.28;;;24.26;53.51
6194;BME280;3130;41.564;23.280;2022-08-03T05:52:12;98784.88;;;24.29;53.18
6194;BME280;3130;41.564;23.280;2022-08-03T05:54:39;98710.31;;;23.88;52.90
6194;BME280;3130;41.564;23.280;2022-08-03T05:57:06;98727.09;;;24.08;50.90
6194;BME280;3130;41.564;23.280;2022-08-03T05:59:37;98782.88;;;24.46;50.74
6194;BME280;3130;41.564;23.280;2022-08-03T06:02:04;98807.59;;;24.65;51.02
6194;BME280;3130;41.564;23.280;2022-08-03T06:04:31;98803.59;;;24.69;51.55
6194;BME280;3130;41.564;23.280;2022-08-03T06:06:58;98738.03;;;24.41;51.32
6194;BME280;3130;41.564;23.280;2022-08-03T06:09:25;98741.56;;;24.33;52.27
6194;BME280;3130;41.564;23.280;2022-08-03T06:11:54;98798.34;;;24.69;52.01
6194;BME280;3130;41.564;23.280;2022-08-03T06:14:21;98801.50;;;24.65;52.12
6194;BME280;3130;41.564;23.280;2022-08-03T06:16:49;98800.72;;;24.50;52.14
6194;BME280;3130;41.564;23.280;2022-08-03T06:19:16;98801.34;;;24.52;52.81
6194;BME280;3130;41.564;23.280;2022-08-03T06:21:43;98797.25;;;24.64;52.32
6194;BME280;3130;41.564;23.280;2022-08-03T06:24:10;98786.50;;;24.73;52.27
6194;BME280;3130;41.564;23.280;2022-08-03T06:26:37;98789.59;;;24.98;50.54
6194;BME280;3130;41.564;23.280;2022-08-03T06:29:05;98788.72;;;25.26;49.22
6194;BME280;3130;41.564;23.280;2022-08-03T06:31:32;98789.69;;;25.40;48.86
6194;BME280;3130;41.564;23.280;2022-08-03T06:34:02;98797.59;;;25.67;47.96
6194;BME280;3130;41.564;23.280;2022-08-03T06:36:29;98800.38;;;25.80;47.88
6194;BME280;3130;41.564;23.280;2022-08-03T06:38:56;98791.56;;;25.94;46.41
6194;BME280;3130;41.564;23.280;2022-08-03T06:41:24;98797.75;;;26.07;46.10
6194;BME280;3130;41.564;23.280;2022-08-03T06:43:51;98792.19;;;26.23;45.37
6194;BME280;3130;41.564;23.280;2022-08-03T06:46:19;98745.38;;;26.06;44.78
6194;BME280;3130;41.564;23.280;2022-08-03T06:48:46;98791.16;;;26.52;43.77
6194;BME280;3130;41.564;23.280;2022-08-03T06:51:15;98788.59;;;26.64;43.43
6194;BME280;3130;41.564;23.280;2022-08-03T06:53:42;98792.72;;;26.80;42.56
6194;BME280;3130;41.564;23.280;2022-08-03T06:56:09;98785.28;;;26.96;42.72
6194;BME280;3130;41.564;23.280;2022-08-03T06:58:36;98729.53;;;26.73;41.76
6194;BME280;3130;41.564;23.280;2022-08-03T07:01:03;98778.50;;;27.21;41.87
6194;BME280;3130;41.564;23.280;2022-08-03T07:03:30;98786.63;;;27.33;41.29
6194;BME280;3130;41.564;23.280;2022-08-03T07:05:57;98785.22;;;27.63;41.24
6194;BME280;3130;41.564;23.280;2022-08-03T07:08:26;98694.81;;;27.43;41.37
6194;BME280;3130;41.564;23.280;2022-08-03T07:10:53;98786.66;;;28.17;40.51
6194;BME280;3130;41.564;23.280;2022-08-03T07:13:20;98763.34;;;28.07;40.53
6194;BME280;3130;41.564;23.280;2022-08-03T07:15:47;98795.75;;;28.47;40.03
6194;BME280;3130;41.564;23.280;2022-08-03T07:18:14;98798.16;;;28.61;39.58
6194;BME280;3130;41.564;23.280;2022-08-03T07:20:41;98796.66;;;28.78;38.31
6194;BME280;3130;41.564;23.280;2022-08-03T07:23:08;98797.44;;;28.91;37.97
6194;BME280;3130;41.564;23.280;2022-08-03T07:25:37;98790.84;;;29.07;38.27
6194;BME280;3130;41.564;23.280;2022-08-03T07:28:04;98797.41;;;29.35;37.77
6194;BME280;3130;41.564;23.280;2022-08-03T07:30:32;98796.84;;;29.58;36.96
6194;BME280;3130;41.564;23.280;2022-08-03T07:33:00;98791.38;;;29.83;35.33
6194;BME280;3130;41.564;23.280;2022-08-03T07:35:27;98793.06;;;30.02;35.41
6194;BME280;3130;41.564;23.280;2022-08-03T07:37:54;98784.56;;;30.18;34.60
6194;BME280;3130;41.564;23.280;2022-08-03T07:40:21;98779.56;;;30.28;34.31
6194;BME280;3130;41.564;23.280;2022-08-03T07:42:50;98778.63;;;30.41;33.89
6194;BME280;3130;41.564;23.280;2022-08-03T07:45:17;98770.91;;;30.39;33.87
6194;BME280;3130;41.564;23.280;2022-08-03T07:47:45;98787.91;;;30.68;33.90
6194;BME280;3130;41.564;23.280;2022-08-03T07:50:13;98788.41;;;30.76;33.38
6194;BME280;3130;41.564;23.280;2022-08-03T07:52:40;98791.28;;;30.92;33.20
6194;BME280;3130;41.564;23.280;2022-08-03T07:55:17;98789.28;;;31.06;33.48
6194;BME280;3130;41.564;23.280;2022-08-03T07:57:45;98785.44;;;31.20;32.57
6194;BME280;3130;41.564;23.280;2022-08-03T08:00:15;98784.81;;;31.47;32.41
6194;BME280;3130;41.564;23.280;2022-08-03T08:02:44;98780.50;;;31.76;31.10
6194;BME280;3130;41.564;23.280;2022-08-03T08:05:11;98776.28;;;32.20;30.34
6194;BME280;3130;41.564;23.280;2022-08-03T08:07:39;98780.50;;;32.56;29.86
6194;BME280;3130;41.564;23.280;2022-08-03T08:10:07;98783.66;;;32.92;29.17
6194;BME280;3130;41.564;23.280;2022-08-03T08:12:36;98782.81;;;33.31;29.10
6194;BME280;3130;41.564;23.280;2022-08-03T08:15:04;98775.88;;;33.30;28.82
6194;BME280;3130;41.564;23.280;2022-08-03T08:17:46;98788.72;;;33.49;28.56
6194;BME280;3130;41.564;23.280;2022-08-03T08:20:16;98781.38;;;33.23;28.80
6194;BME280;3130;41.564;23.280;2022-08-03T08:22:43;98780.84;;;32.98;30.25
6194;BME280;3130;41.564;23.280;2022-08-03T08:25:11;98777.84;;;32.56;30.36
6194;BME280;3130;41.564;23.280;2022-08-03T08:27:42;98770.69;;;32.45;30.36
6194;BME280;3130;41.564;23.280;2022-08-03T08:30:10;98770.38;;;32.41;30.14
6194;BME280;3130;41.564;23.280;2022-08-03T08:32:37;98761.63;;;32.29;30.92
6194;BME280;3130;41.564;23.280;2022-08-03T08:35:07;98755.03;;;32.32;30.53
6194;BME280;3130;41.564;23.280;2022-08-03T08:37:34;98758.00;;;32.35;30.97
6194;BME280;3130;41.564;23.280;2022-08-03T08:40:02;98755.47;;;32.29;30.80
6194;BME280;3130;41.564;23.280;2022-08-03T08:42:30;98762.66;;;32.40;30.85
6194;BME280;3130;41.564;23.280;2022-08-03T08:44:58;98757.19;;;32.46;30.97
6194;BME280;3130;41.564;23.280;2022-08-03T08:47:29;98756.81;;;32.54;30.42
6194;BME280;3130;41.564;23.280;2022-08-03T08:49:57;98759.72;;;32.53;30.57
6194;BME280;3130;41.564;23.280;2022-08-03T08:52:27;98758.94;;;32.41;30.93
6194;BME280;3130;41.564;23.280;2022-08-03T08:54:56;98696.63;;;32.09;30.59
6194;BME280;3130;41.564;23.280;2022-08-03T08:57:28;98751.47;;;32.26;31.31
6194;BME280;3130;41.564;23.280;2022-08-03T08:59:55;98745.56;;;32.24;30.90
6194;BME280;3130;41.564;23.280;2022-08-03T09:02:23;98699.66;;;32.12;30.80
6194;BME280;3130;41.564;23.280;2022-08-03T09:04:51;98687.03;;;32.08;30.40
6194;BME280;3130;41.564;23.280;2022-08-03T09:07:19;98740.09;;;32.54;30.03
6194;BME280;3130;41.564;23.280;2022-08-03T09:09:47;98737.09;;;32.50;30.11
6194;BME280;3130;41.564;23.280;2022-08-03T09:12:14;98724.97;;;32.43;29.79
6194;BME280;3130;41.564;23.280;2022-08-03T09:14:41;98743.53;;;32.66;29.92
6194;BME280;3130;41.564;23.280;2022-08-03T09:17:09;98692.06;;;32.44;29.52
6194;BME280;3130;41.564;23.280;2022-08-03T09:19:36;98691.97;;;32.39;29.45
6194;BME280;3130;41.564;23.280;2022-08-03T09:22:08;98743.19;;;32.74;29.65
6194;BME280;3130;41.564;23.280;2022-08-03T09:24:38;98736.69;;;32.81;29.29
6194;BME280;3130;41.564;23.280;2022-08-03T09:27:22;98737.44;;;32.93;29.19
6194;BME280;3130;41.564;23.280;2022-08-03T09:30:10;98719.06;;;32.92;28.83
6194;BME280;3130;41.564;23.280;2022-08-03T09:32:40;98727.63;;;32.94;29.01
6194;BME280;3130;41.564;23.280;2022-08-03T09:35:09;98721.44;;;33.04;28.90
6194;BME280;3130;41.564;23.280;2022-08-03T09:37:37;98720.47;;;33.10;29.34
6194;BME280;3130;41.564;23.280;2022-08-03T09:40:05;98681.13;;;32.96;29.50
6194;BME280;3130;41.564;23.280;2022-08-03T09:42:34;98645.44;;;32.92;28.87
6194;BME280;3130;41.564;23.280;2022-08-03T09:45:05;98710.19;;;33.30;28.79
6194;BME280;3130;41.564;23.280;2022-08-03T09:47:38;98708.75;;;33.39;29.04
6194;BME280;3130;41.564;23.280;2022-08-03T09:50:08;98632.09;;;33.03;28.91
6194;BME280;3130;41.564;23.280;2022-08-03T09:52:36;98709.31;;;33.58;28.20
6194;BME280;3130;41.564;23.280;2022-08-03T09:55:08;98704.56;;;33.60;28.16
6194;BME280;3130;41.564;23.280;2022-08-03T09:57:37;98626.78;;;33.03;28.39
6194;BME280;3130;41.564;23.280;2022-08-03T10:00:07;98646.47;;;32.91;28.38
6194;BME280;3130;41.564;23.280;2022-08-03T10:02:37;98707.56;;;33.02;29.10
6194;BME280;3130;41.564;23.280;2022-08-03T10:05:05;98616.22;;;32.36;29.53
6194;BME280;3130;41.564;23.280;2022-08-03T10:07:41;98672.13;;;32.97;28.86
6194;BME280;3130;41.564;23.280;2022-08-03T10:10:09;98642.78;;;32.92;28.75
6194;BME280;3130;41.564;23.280;2022-08-03T10:12:37;98676.31;;;33.09;28.76
6194;BME280;3130;41.564;23.280;2022-08-03T10:15:07;98632.63;;;32.73;29.03
6194;BME280;3130;41.564;23.280;2022-08-03T10:17:35;98668.22;;;33.16;28.96
6194;BME280;3130;41.564;23.280;2022-08-03T10:20:03;98621.44;;;33.03;28.39
6194;BME280;3130;41.564;23.280;2022-08-03T10:22:32;98668.88;;;33.39;28.02
6194;BME280;3130;41.564;23.280;2022-08-03T10:25:02;98659.84;;;33.40;28.02
6194;BME280;3130;41.564;23.280;2022-08-03T10:27:32;98638.94;;;33.32;28.55
6194;BME280;3130;41.564;23.280;2022-08-03T10:30:04;98660.31;;;33.54;27.85
6194;BME280;3130;41.564;23.280;2022-08-03T10:32:36;98641.13;;;33.52;28.31
6194;BME280;3130;41.564;23.280;2022-08-03T10:35:06;98650.47;;;33.71;28.37
6194;BME280;3130;41.564;23.280;2022-08-03T10:37:40;98641.88;;;33.85;28.16
6194;BME280;3130;41.564;23.280;2022-08-03T10:40:11;98615.72;;;33.77;28.58
6194;BME280;3130;41.564;23.280;2022-08-03T10:42:40;98635.63;;;33.75;27.88
6194;BME280;3130;41.564;23.280;2022-08-03T10:45:17;98643.38;;;33.76;27.98
6194;BME280;3130;41.564;23.280;2022-08-03T10:47:45;98613.13;;;33.49;28.14
6194;BME280;3130;41.564;23.280;2022-08-03T10:50:13;98627.09;;;33.73;27.12
6194;BME280;3130;41.564;23.280;2022-08-03T10:52:59;98589.06;;;33.39;27.29
6194;BME280;3130;41.564;23.280;2022-08-03T10:55:32;98632.28;;;33.84;27.70
6194;BME280;3130;41.564;23.280;2022-08-03T10:58:47;98633.59;;;34.03;27.46
6194;BME280;3130;41.564;23.280;2022-08-03T11:01:17;98633.50;;;34.14;27.04
6194;BME280;3130;41.564;23.280;2022-08-03T11:04:15;98581.41;;;33.81;27.06
6194;BME280;3130;41.564;23.280;2022-08-03T11:06:44;98624.53;;;33.99;27.04
6194;BME280;3130;41.564;23.280;2022-08-03T11:09:18;98619.63;;;33.91;26.72
6194;BME280;3130;41.564;23.280;2022-08-03T11:11:47;98597.06;;;33.61;27.01
6194;BME280;3130;41.564;23.280;2022-08-03T11:14:16;98582.91;;;33.55;27.26
6194;BME280;3130;41.564;23.280;2022-08-03T11:16:47;98593.00;;;33.70;26.62
6194;BME280;3130;41.564;23.280;2022-08-03T11:19:16;98551.53;;;33.57;26.72
6194;BME280;3130;41.564;23.280;2022-08-03T11:21:57;98560.72;;;33.66;26.50
6194;BME280;3130;41.564;23.280;2022-08-03T11:24:58;98609.34;;;34.00;25.89
6194;BME280;3130;41.564;23.280;2022-08-03T11:27:28;98606.03;;;33.93;26.42
6194;BME280;3130;41.564;23.280;2022-08-03T11:29:58;98601.03;;;33.96;26.87
6194;BME280;3130;41.564;23.280;2022-08-03T11:32:57;98597.25;;;33.92;26.28
6194;BME280;3130;41.564;23.280;2022-08-03T11:35:26;98596.75;;;33.74;26.97
6194;BME280;3130;41.564;23.280;2022-08-03T11:38:09;98544.06;;;33.54;26.27
6194;BME280;3130;41.564;23.280;2022-08-03T11:40:39;98592.69;;;33.88;26.59
6194;BME280;3130;41.564;23.280;2022-08-03T11:43:08;98584.25;;;33.96;26.69
6194;BME280;3130;41.564;23.280;2022-08-03T11:45:36;98587.75;;;34.17;27.11
6194;BME280;3130;41.564;23.280;2022-08-03T11:48:14;98553.88;;;34.13;26.49
6194;BME280;3130;41.564;23.280;2022-08-03T11:50:42;98579.41;;;34.35;26.24
6194;BME280;3130;41.564;23.280;2022-08-03T11:53:15;98556.22;;;34.36;26.34
6194;BME280;3130;41.564;23.280;2022-08-03T11:55:42;98574.22;;;34.50;27.09
6194;BME280;3130;41.564;23.280;2022-08-03T11:58:17;98578.72;;;34.45;27.00
6194;BME280;3130;41.564;23.280;2022-08-03T12:00:44;98568.69;;;34.30;26.32
6194;BME280;3130;41.564;23.280;2022-08-03T12:03:15;98535.25;;;34.13;26.30
6194;BME280;3130;41.564;23.280;2022-08-03T12:05:45;98559.78;;;34.41;26.37
6194;BME280;3130;41.564;23.280;2022-08-03T12:08:14;98540.88;;;33.95;27.25
6194;BME280;3130;41.564;23.280;2022-08-03T12:10:47;98561.75;;;34.29;27.74
6194;BME280;3130;41.564;23.280;2022-08-03T12:13:15;98560.97;;;34.55;26.96
6194;BME280;3130;41.564;23.280;2022-08-03T12:15:42;98561.97;;;34.76;26.77
6194;BME280;3130;41.564;23.280;2022-08-03T12:18:15;98550.34;;;34.92;26.56
6194;BME280;3130;41.564;23.280;2022-08-03T12:20:45;98556.53;;;34.97;26.35
6194;BME280;3130;41.564;23.280;2022-08-03T12:23:12;98538.19;;;35.06;26.27
6194;BME280;3130;41.564;23.280;2022-08-03T12:25:41;98543.69;;;35.20;25.74
6194;BME280;3130;41.564;23.280;2022-08-03T12:28:13;98553.78;;;35.18;25.14
6194;BME280;3130;41.564;23.280;2022-08-03T12:30:44;98547.97;;;35.21;25.58
6194;BME280;3130;41.564;23.280;2022-08-03T12:33:15;98485.63;;;34.60;25.52
6194;BME280;3130;41.564;23.280;2022-08-03T12:35:44;98543.53;;;34.69;26.03
6194;BME280;3130;41.564;23.280;2022-08-03T12:38:12;98558.16;;;34.67;25.92
6194;BME280;3130;41.564;23.280;2022-08-03T12:40:40;98535.47;;;34.38;25.84
6194;BME280;3130;41.564;23.280;2022-08-03T12:43:11;98548.28;;;34.41;26.22
6194;BME280;3130;41.564;23.280;2022-08-03T12:45:39;98516.25;;;34.09;26.56
6194;BME280;3130;41.564;23.280;2022-08-03T12:48:08;98540.22;;;34.09;26.37
6194;BME280;3130;41.564;23.280;2022-08-03T12:50:38;98526.25;;;33.98;26.85
6194;BME280;3130;41.564;23.280;2022-08-03T12:53:07;98546.28;;;34.05;26.85
6194;BME280;3130;41.564;23.280;2022-08-03T12:55:35;98539.50;;;34.14;26.37
6194;BME280;3130;41.564;23.280;2022-08-03T12:58:04;98542.22;;;34.19;26.39
6194;BME280;3130;41.564;23.280;2022-08-03T13:00:32;98540.47;;;34.08;26.99
6194;BME280;3130;41.564;23.280;2022-08-03T13:03:00;98535.47;;;33.90;26.90
6194;BME280;3130;41.564;23.280;2022-08-03T13:05:28;98541.97;;;33.78;27.07
6194;BME280;3130;41.564;23.280;2022-08-03T13:07:57;98525.50;;;33.59;27.26
6194;BME280;3130;41.564;23.280;2022-08-03T13:10:29;98530.81;;;33.59;27.69
6194;BME280;3130;41.564;23.280;2022-08-03T13:12:57;98530.81;;;33.59;27.93
6194;BME280;3130;41.564;23.280;2022-08-03T13:15:27;98537.28;;;33.63;27.53
6194;BME280;3130;41.564;23.280;2022-08-03T13:17:55;98539.22;;;33.68;27.36
6194;BME280;3130;41.564;23.280;2022-08-03T13:20:22;98524.28;;;33.67;27.88
6194;BME280;3130;41.564;23.280;2022-08-03T13:22:49;98518.78;;;33.73;27.29